地図

経路データ

SID SEASON NUMBER BASIN SUBBASIN NAME ISO_TIME NATURE LAT LON WMO_WIND WMO_PRES WMO_AGENCY TRACK_TYPE DIST2LAND LANDFALL IFLAG USA_AGENCY USA_ATCF_ID USA_LAT USA_LON USA_RECORD USA_STATUS USA_WIND USA_PRES USA_SSHS USA_R34_NE USA_R34_SE USA_R34_SW USA_R34_NW USA_R50_NE USA_R50_SE USA_R50_SW USA_R50_NW USA_R64_NE USA_R64_SE USA_R64_SW USA_R64_NW USA_POCI USA_ROCI USA_RMW USA_EYE TOKYO_LAT TOKYO_LON TOKYO_GRADE TOKYO_WIND TOKYO_PRES TOKYO_R50_DIR TOKYO_R50_LONG TOKYO_R50_SHORT TOKYO_R30_DIR TOKYO_R30_LONG TOKYO_R30_SHORT TOKYO_LAND CMA_LAT CMA_LON CMA_CAT CMA_WIND CMA_PRES HKO_LAT HKO_LON HKO_CAT HKO_WIND HKO_PRES NEWDELHI_LAT NEWDELHI_LON NEWDELHI_GRADE NEWDELHI_WIND NEWDELHI_PRES NEWDELHI_CI NEWDELHI_DP NEWDELHI_POCI REUNION_LAT REUNION_LON REUNION_TYPE REUNION_WIND REUNION_PRES REUNION_TNUM REUNION_CI REUNION_RMW REUNION_R34_NE REUNION_R34_SE REUNION_R34_SW REUNION_R34_NW REUNION_R50_NE REUNION_R50_SE REUNION_R50_SW REUNION_R50_NW REUNION_R64_NE REUNION_R64_SE REUNION_R64_SW REUNION_R64_NW BOM_LAT BOM_LON BOM_TYPE BOM_WIND BOM_PRES BOM_TNUM BOM_CI BOM_RMW BOM_R34_NE BOM_R34_SE BOM_R34_SW BOM_R34_NW BOM_R50_NE BOM_R50_SE BOM_R50_SW BOM_R50_NW BOM_R64_NE BOM_R64_SE BOM_R64_SW BOM_R64_NW BOM_ROCI BOM_POCI BOM_EYE BOM_POS_METHOD BOM_PRES_METHOD NADI_LAT NADI_LON NADI_CAT NADI_WIND NADI_PRES WELLINGTON_LAT WELLINGTON_LON WELLINGTON_WIND WELLINGTON_PRES DS824_LAT DS824_LON DS824_STAGE DS824_WIND DS824_PRES TD9636_LAT TD9636_LON TD9636_STAGE TD9636_WIND TD9636_PRES TD9635_LAT TD9635_LON TD9635_WIND TD9635_PRES TD9635_ROCI NEUMANN_LAT NEUMANN_LON NEUMANN_CLASS NEUMANN_WIND NEUMANN_PRES MLC_LAT MLC_LON MLC_CLASS MLC_WIND MLC_PRES USA_GUST BOM_GUST BOM_GUST_PER REUNION_GUST REUNION_GUST_PER USA_SEAHGT USA_SEARAD_NE USA_SEARAD_SE USA_SEARAD_SW USA_SEARAD_NW STORM_SPEED STORM_DIR
1947282N13278 1947 79 NA CS NOT_NAMED 1947-10-08 18:00:00 TS 13.5000 -82.3000 25 hurdat_atl main 129 102 O_____________ hurdat_atl AL091947 13.5000 -82.3000 TD 25 -1 7 345
1947282N13278 1947 79 NA CS NOT_NAMED 1947-10-08 21:00:00 TS 13.8500 -82.4024 main 97 76 P_____________ AL091947 13.8500 -82.4024 TD 25 -1 7 345
1947282N13278 1947 79 NA CS NOT_NAMED 1947-10-09 00:00:00 TS 14.2000 -82.5000 25 hurdat_atl main 76 65 O_____________ hurdat_atl AL091947 14.2000 -82.5000 TD 25 -1 7 345
1947282N13278 1947 79 NA CS NOT_NAMED 1947-10-09 03:00:00 TS 14.5500 -82.5926 main 68 44 P_____________ AL091947 14.5500 -82.5926 TD 27 -1 7 345
1947282N13278 1947 79 NA CS NOT_NAMED 1947-10-09 06:00:00 TS 14.9000 -82.7000 30 hurdat_atl main 44 32 O_____________ hurdat_atl AL091947 14.9000 -82.7000 TD 30 -1 7 341
1947282N13278 1947 79 NA CS NOT_NAMED 1947-10-09 09:00:00 TS 15.2425 -82.8425 main 39 39 P_____________ AL091947 15.2425 -82.8425 TD 30 -1 8 337
1947282N13278 1947 79 NA CS NOT_NAMED 1947-10-09 12:00:00 TS 15.6000 -83.0000 30 hurdat_atl main 54 54 O_____________ hurdat_atl AL091947 15.6000 -83.0000 TD 30 -1 8 338
1947282N13278 1947 79 NA CS NOT_NAMED 1947-10-09 15:00:00 TS 15.9925 -83.1575 main 81 81 P_____________ AL091947 15.9925 -83.1575 TD 32 -1 9 340
1947282N13278 1947 79 NA CS NOT_NAMED 1947-10-09 18:00:00 TS 16.4000 -83.3000 35 hurdat_atl main 116 116 O_____________ hurdat_atl AL091947 16.4000 -83.3000 TS 35 0 8 343
1947282N13278 1947 79 NA CS NOT_NAMED 1947-10-09 21:00:00 TS 16.7925 -83.4076 main 147 147 P_____________ AL091947 16.7925 -83.4076 TS 37 0 8 347
1947282N13278 1947 79 NA CS NOT_NAMED 1947-10-10 00:00:00 TS 17.2000 -83.5000 40 hurdat_atl main 178 178 O_____________ hurdat_atl AL091947 17.2000 -83.5000 TS 40 0 9 348
1947282N13278 1947 79 NA CS NOT_NAMED 1947-10-10 03:00:00 TS 17.6350 -83.5926 main 214 214 P_____________ AL091947 17.6350 -83.5926 TS 40 0 9 348
1947282N13278 1947 79 NA CS NOT_NAMED 1947-10-10 06:00:00 TS 18.1000 -83.7000 40 hurdat_atl main 265 265 O_____________ hurdat_atl AL091947 18.1000 -83.7000 TS 40 0 10 345
1947282N13278 1947 79 NA CS NOT_NAMED 1947-10-10 09:00:00 TS 18.5925 -83.8574 main 313 286 P_____________ AL091947 18.5925 -83.8574 TS 42 0 10 344
1947282N13278 1947 79 NA CS NOT_NAMED 1947-10-10 12:00:00 TS 19.1000 -84.0000 45 hurdat_atl main 286 241 O_____________ hurdat_atl AL091947 19.1000 -84.0000 TS 45 0 10 348
1947282N13278 1947 79 NA CS NOT_NAMED 1947-10-10 15:00:00 TS 19.6000 -84.0874 main 241 193 P_____________ AL091947 19.6000 -84.0874 TS 47 0 10 354
1947282N13278 1947 79 NA CS NOT_NAMED 1947-10-10 18:00:00 TS 20.1000 -84.1000 50 1000 hurdat_atl main 193 143 O_____________ hurdat_atl AL091947 20.1000 -84.1000 TS 50 1000 0 10 3
1947282N13278 1947 79 NA CS NOT_NAMED 1947-10-10 21:00:00 TS 20.6000 -84.0226 main 143 90 P_____________ AL091947 20.6000 -84.0226 TS 52 0 10 11
1947282N13278 1947 79 NA CS NOT_NAMED 1947-10-11 00:00:00 TS 21.1000 -83.9000 55 hurdat_atl main 90 35 O_____________ hurdat_atl AL091947 21.1000 -83.9000 TS 55 0 11 9
1947282N13278 1947 79 NA CS NOT_NAMED 1947-10-11 03:00:00 TS 21.6539 -83.8538 main 24 11 P_____________ AL091947 21.6539 -83.8538 TS 55 0 10 11
1947282N13278 1947 79 NA CS NOT_NAMED 1947-10-11 06:00:00 TS 22.1000 -83.7000 55 hurdat_atl main 11 0 O_____________ hurdat_atl AL091947 22.1000 -83.7000 TS 55 0 9 23
1947282N13278 1947 79 NA CS NOT_NAMED 1947-10-11 07:00:00 TS 22.2000 -83.6000 55 hurdat_atl main 0 0 O_____________ hurdat_atl AL091947 22.2000 -83.6000 L TS 55 0 10 25
1947282N13278 1947 79 NA NA NOT_NAMED 1947-10-11 09:00:00 TS 22.5328 -83.4869 main 0 0 P_____________ AL091947 22.5328 -83.4869 TS 57 0 12 11
1947282N13278 1947 79 NA GM NOT_NAMED 1947-10-11 12:00:00 TS 23.2000 -83.4000 60 hurdat_atl main 33 33 O_____________ hurdat_atl AL091947 23.2000 -83.4000 TS 60 0 13 11
1947282N13278 1947 79 NA GM NOT_NAMED 1947-10-11 15:00:00 TS 23.7726 -83.2149 main 98 98 P_____________ AL091947 23.7726 -83.2149 TS 67 1 12 23
1947282N13278 1947 79 NA NA NOT_NAMED 1947-10-11 18:00:00 TS 24.3000 -82.9000 75 983 hurdat_atl main 140 138 O_____________ hurdat_atl AL091947 24.3000 -82.9000 HU 75 983 1 12 34
1947282N13278 1947 79 NA GM NOT_NAMED 1947-10-11 21:00:00 TS 24.7974 -82.4702 main 138 60 P_____________ AL091947 24.7974 -82.4702 HU 77 979 1 13 48
1947282N13278 1947 79 NA GM NOT_NAMED 1947-10-12 00:00:00 TS 25.2000 -81.8000 80 975 hurdat_atl main 60 10 O_____________ hurdat_atl AL091947 25.2000 -81.8000 HU 80 975 1 16 62
1947282N13278 1947 79 NA GM NOT_NAMED 1947-10-12 02:00:00 TS 25.4000 -81.2000 80 975 hurdat_atl main 10 0 O_____________ hurdat_atl AL091947 25.4000 -81.2000 L HU 80 975 1 16 68
1947282N13278 1947 79 NA NA NOT_NAMED 1947-10-12 03:00:00 TS 25.4962 -80.9736 main 0 0 P_____________ AL091947 25.4962 -80.9736 HU 77 1 11 58
1947282N13278 1947 79 NA NA NOT_NAMED 1947-10-12 06:00:00 TS 25.8000 -80.5000 70 hurdat_atl main 0 0 O_____________ hurdat_atl AL091947 25.8000 -80.5000 HU 70 1 11 52
1947282N13278 1947 79 NA NA NOT_NAMED 1947-10-12 09:00:00 TS 26.1887 -79.9954 main 9 9 P_____________ AL091947 26.1887 -79.9954 HU 70 1 12 48
1947282N13278 1947 79 NA NA NOT_NAMED 1947-10-12 12:00:00 TS 26.6000 -79.5000 70 hurdat_atl main 54 54 O_____________ hurdat_atl AL091947 26.6000 -79.5000 HU 70 1 12 49
1947282N13278 1947 79 NA NA NOT_NAMED 1947-10-12 15:00:00 TS 26.9496 -79.0218 main 99 99 P_____________ AL091947 26.9496 -79.0218 HU 67 1 11 52
1947282N13278 1947 79 NA NA NOT_NAMED 1947-10-12 18:00:00 TS 27.3000 -78.5000 65 hurdat_atl main 158 158 O_____________ hurdat_atl AL091947 27.3000 -78.5000 HU 65 1 12 55
1947282N13278 1947 79 NA NA NOT_NAMED 1947-10-12 21:00:00 TS 27.6624 -77.8792 main 230 230 P_____________ AL091947 27.6624 -77.8792 HU 62 0 14 55
1947282N13278 1947 79 NA NA NOT_NAMED 1947-10-13 00:00:00 TS 28.1000 -77.2000 60 hurdat_atl main 310 310 O_____________ hurdat_atl AL091947 28.1000 -77.2000 TS 60 0 16 51
1947282N13278 1947 79 NA NA NOT_NAMED 1947-10-13 03:00:00 TS 28.6629 -76.4631 main 390 390 P_____________ AL091947 28.6629 -76.4631 TS 60 0 17 46
1947282N13278 1947 79 NA NA NOT_NAMED 1947-10-13 06:00:00 TS 29.3000 -75.8000 60 hurdat_atl main 465 465 O_____________ hurdat_atl AL091947 29.3000 -75.8000 TS 60 0 17 38
1947282N13278 1947 79 NA NA NOT_NAMED 1947-10-13 09:00:00 TS 29.9646 -75.3024 main 503 463 P_____________ AL091947 29.9646 -75.3024 TS 62 0 15 28
1947282N13278 1947 79 NA NA NOT_NAMED 1947-10-13 12:00:00 TS 30.6000 -75.0000 65 hurdat_atl main 463 431 O_____________ hurdat_atl AL091947 30.6000 -75.0000 HU 65 1 13 18
1947282N13278 1947 79 NA NA NOT_NAMED 1947-10-13 15:00:00 TS 31.1596 -74.8371 main 421 376 P_____________ AL091947 31.1596 -74.8371 HU 67 1 10 5
1947282N13278 1947 79 NA NA NOT_NAMED 1947-10-13 18:00:00 TS 31.6000 -74.9000 70 982 hurdat_atl main 376 334 O_____________ hurdat_atl AL091947 31.6000 -74.9000 HU 70 982 1 8 339
1947282N13278 1947 79 NA NA NOT_NAMED 1947-10-13 21:00:00 TS 31.9101 -75.1820 main 334 300 P_____________ AL091947 31.9101 -75.1820 HU 70 1 8 310
1947282N13278 1947 79 NA NA NOT_NAMED 1947-10-14 00:00:00 TS 32.1000 -75.6000 70 hurdat_atl main 300 265 O_____________ hurdat_atl AL091947 32.1000 -75.6000 HU 70 1 8 296
1947282N13278 1947 79 NA NA NOT_NAMED 1947-10-14 03:00:00 TS 32.2525 -75.9999 main 257 232 P_____________ AL091947 32.2525 -75.9999 HU 72 1 7 286
1947282N13278 1947 79 NA NA NOT_NAMED 1947-10-14 06:00:00 TS 32.3000 -76.4000 75 hurdat_atl main 232 215 O_____________ hurdat_atl AL091947 32.3000 -76.4000 HU 75 1 7 268
1947282N13278 1947 79 NA NA NOT_NAMED 1947-10-14 09:00:00 TS 32.2299 -76.7728 main 219 211 P_____________ AL091947 32.2299 -76.7728 HU 75 1 6 251
1947282N13278 1947 79 NA NA NOT_NAMED 1947-10-14 12:00:00 TS 32.1000 -77.1000 75 hurdat_atl main 217 214 O_____________ hurdat_atl AL091947 32.1000 -77.1000 HU 75 1 5 245
1947282N13278 1947 79 NA NA NOT_NAMED 1947-10-14 15:00:00 TS 31.9997 -77.3423 main 221 207 P_____________ AL091947 31.9997 -77.3423 HU 77 1 5 245
1947282N13278 1947 79 NA NA NOT_NAMED 1947-10-14 18:00:00 TS 31.9000 -77.6000 80 975 hurdat_atl main 208 194 O_____________ hurdat_atl AL091947 31.9000 -77.6000 HU 80 975 1 6 248
1947282N13278 1947 79 NA NA NOT_NAMED 1947-10-14 21:00:00 TS 31.7923 -77.9550 main 187 172 P_____________ AL091947 31.7923 -77.9550 HU 82 970 1 7 254
1947282N13278 1947 79 NA NA NOT_NAMED 1947-10-15 00:00:00 TS 31.7000 -78.4000 85 966 hurdat_atl main 172 152 O_____________ hurdat_atl AL091947 31.7000 -78.4000 HU 85 966 2 8 257
1947282N13278 1947 79 NA NA NOT_NAMED 1947-10-15 03:00:00 TS 31.6141 -78.8808 main 152 121 P_____________ AL091947 31.6141 -78.8808 HU 87 2 9 264
1947282N13278 1947 79 NA NA NOT_NAMED 1947-10-15 06:00:00 TS 31.6000 -79.5000 90 hurdat_atl main 121 60 O_____________ hurdat_atl AL091947 31.6000 -79.5000 HU 90 2 13 275
1947282N13278 1947 79 NA NA NOT_NAMED 1947-10-15 09:00:00 TS 31.7363 -80.3747 main 52 11 P_____________ AL091947 31.7363 -80.3747 HU 90 2 14 280
1947282N13278 1947 79 NA NA NOT_NAMED 1947-10-15 11:00:00 TS 31.8000 -80.9000 90 hurdat_atl main 11 9 O_____________ hurdat_atl AL091947 31.8000 -80.9000 L HU 90 2 12 276
1947282N13278 1947 79 NA NA NOT_NAMED 1947-10-15 12:00:00 TS 31.8000 -81.1000 90 hurdat_atl main 9 0 O_____________ hurdat_atl AL091947 31.8000 -81.1000 HU 90 2 15 266
1947282N13278 1947 79 NA NA NOT_NAMED 1947-10-15 15:00:00 TS 31.7350 -82.0645 main 0 0 P_____________ AL091947 31.7350 -82.0645 HU 72 1 17 263
1947282N13278 1947 79 NA NA NOT_NAMED 1947-10-15 18:00:00 TS 31.6000 -83.1000 55 hurdat_atl main 0 0 O_____________ hurdat_atl AL091947 31.6000 -83.1000 TS 55 0 13 258
1947282N13278 1947 79 NA NA NOT_NAMED 1947-10-15 21:00:00 TS 31.4487 -83.6047 main 0 0 P_____________ AL091947 31.4487 -83.6047 TS 47 0 7 246
1947282N13278 1947 79 NA NA NOT_NAMED 1947-10-16 00:00:00 TS 31.3000 -83.9000 40 hurdat_atl main 0 0 O_____________ hurdat_atl AL091947 31.3000 -83.9000 TS 40 0 6 238
1947282N13278 1947 79 NA NA NOT_NAMED 1947-10-16 03:00:00 TS 31.1248 -84.2080 main 0 0 P_____________ AL091947 31.1248 -84.2080 TS 35 0 6 249
1947282N13278 1947 79 NA NA NOT_NAMED 1947-10-16 06:00:00 TS 31.1000 -84.5000 30 hurdat_atl main 0 0 O_____________ hurdat_atl AL091947 31.1000 -84.5000 TD 30 -1 6 296
1947282N13278 1947 79 NA NA NOT_NAMED 1947-10-16 09:00:00 TS 31.3822 -84.8124 main 0 0 P_____________ AL091947 31.3822 -84.8124 TD 27 -1 9 320
1947282N13278 1947 79 NA NA NOT_NAMED 1947-10-16 12:00:00 TS 31.8000 -85.2000 25 hurdat_atl main 0 0 O_____________ hurdat_atl AL091947 31.8000 -85.2000 TD 25 -1 11 316
1947282N13278 1947 79 NA NA NOT_NAMED 1947-10-16 15:00:00 TS 32.1732 -85.7118 main 0 0 P_____________ AL091947 32.1732 -85.7118 TD 25 -1 12 307
1947282N13278 1947 79 NA NA NOT_NAMED 1947-10-16 18:00:00 TS 32.5000 -86.3000 25 hurdat_atl main 0 O_____________ hurdat_atl AL091947 32.5000 -86.3000 TD 25 -1 12 303

IBTrACS Databaseについて

本データベースは、米国NOAAが公開する1842年以降の世界の熱帯低気圧のベストトラックデータアーカイブInternational Best Track Archive for Climate Stewardship (IBTrACS)を、ウェブで閲覧しやすい形式に変換したものです。

最終更新日:2021-11-26